Back to Top

Language: 

My Weather Underground Personal Weather Station Historical Data with Graphs...

Delerius Weather Station Historical Data
Daily Summary for January 1, 2017 Units:  Metric    English   Both
« Previous Day
Next Day »
Daily Weekly Monthly Yearly Custom
  High: Low: Average:
Temperature: 8.9 °C 1.7 °C 4.5 °C
Dew Point: 6.3 °C 0.4 °C 3.2 °C
Humidity: 95 % 80 % 91 %
Wind Speed: 14.5 km/h 0 km/h 8.4 km/h
Wind Gust: 35.4 km/h - -
Wind:- - West
Pressure: 1027 hPa 1014.1 hPa -
Precipitation: 5.33 mm    
Historical Graphs
 
 
Tabular Data for January 1, 2017
Time Temperature Dew Point Pressure Wind Wind Speed Wind Gust Humidity Rainfall Rate (Hourly) solar Conditions
00:00 8.9 °C 5.7 °C 1017.5 hPa SSW 11.3 km/h 35.4 km/h 80 % 0 mm 0 W/m2
00:05 8.9 °C 5.8 °C 1017.5 hPa SW 11.3 km/h 35.4 km/h 81 % 0 mm 0 W/m2
00:15 8.9 °C 5.8 °C 1017.5 hPa SW 11.3 km/h 11.3 km/h 81 % 0 mm 0 W/m2
00:20 8.9 °C 6.1 °C 1017.2 hPa SW 12.9 km/h 12.9 km/h 82 % 0 mm 0 W/m2
00:25 8.9 °C 6.1 °C 1017.2 hPa SW 11.3 km/h 12.9 km/h 82 % 0 mm 0 W/m2
00:30 8.9 °C 6 °C 1017.2 hPa SW 9.7 km/h 9.7 km/h 82 % 0 mm 0 W/m2
00:35 8.8 °C 5.9 °C 1017.2 hPa WSW 11.3 km/h 11.3 km/h 82 % 0 mm 0 W/m2
00:45 8.8 °C 6.1 °C 1016.8 hPa WSW 11.3 km/h 11.3 km/h 83 % 0 mm 0 W/m2
00:50 8.8 °C 6.1 °C 1016.8 hPa WSW 9.7 km/h 9.7 km/h 83 % 0 mm 0 W/m2
00:55 8.7 °C 6.2 °C 1016.5 hPa WSW 6.4 km/h 11.3 km/h 84 % 0 mm 0 W/m2
01:00 8.7 °C 6.2 °C 1016.5 hPa SW 8 km/h 9.7 km/h 84 % 0 mm 0 W/m2
01:05 8.7 °C 6.1 °C 1016.5 hPa WSW 9.7 km/h 11.3 km/h 84 % 0 mm 0 W/m2
01:15 8.7 °C 6.2 °C 1016.1 hPa West 12.9 km/h 19.3 km/h 84 % 0 mm 0 W/m2
01:20 8.8 °C 6.2 °C 1016.1 hPa West 14.5 km/h 14.5 km/h 84 % 0 mm 0 W/m2
01:25 8.8 °C 6.2 °C 1016.1 hPa WSW 14.5 km/h 19.3 km/h 84 % 0 mm 0 W/m2
01:30 8.8 °C 6.2 °C 1015.8 hPa WSW 12.9 km/h 12.9 km/h 84 % 0 mm 0 W/m2
01:35 8.7 °C 6.2 °C 1015.8 hPa WSW 9.7 km/h 19.3 km/h 84 % 0 mm 0 W/m2
01:40 8.7 °C 6.1 °C 1015.8 hPa SW 11.3 km/h 11.3 km/h 84 % 0 mm 0 W/m2
01:50 8.6 °C 6 °C 1015.8 hPa WSW 9.7 km/h 19.3 km/h 84 % 0 mm 0 W/m2
01:55 8.5 °C 6.1 °C 1015.8 hPa West 9.7 km/h 19.3 km/h 85 % 0 mm 0 W/m2
02:00 8.4 °C 6.1 °C 1015.5 hPa WSW 9.7 km/h 9.7 km/h 85 % 0 mm 0 W/m2
02:05 8.4 °C 6 °C 1015.5 hPa WSW 8 km/h 19.3 km/h 85 % 0 mm 0 W/m2
02:10 8.3 °C 6.1 °C 1015.5 hPa WSW 9.7 km/h 9.7 km/h 86 % 0 mm 0 W/m2
02:15 8.3 °C 6.1 °C 1015.5 hPa SW 9.7 km/h 19.3 km/h 86 % 0 mm 0 W/m2
02:25 8.2 °C 6.2 °C 1015.1 hPa WSW 9.7 km/h 19.3 km/h 87 % 0 mm 0 W/m2
02:30 8.2 °C 6.3 °C 1015.1 hPa WSW 6.4 km/h 19.3 km/h 88 % 0 mm 0 W/m2
02:35 8.1 °C 6.2 °C 1015.1 hPa WSW 4.8 km/h 19.3 km/h 88 % 0 mm 0 W/m2
02:40 8.1 °C 6.2 °C 1015.1 hPa WSW 8 km/h 8 km/h 88 % 0 mm 0 W/m2
02:45 8 °C 6.3 °C 1015.1 hPa WSW 8 km/h 19.3 km/h 89 % 0 mm 0 W/m2
02:50 7.9 °C 6.2 °C 1015.1 hPa SW 6.4 km/h 19.3 km/h 89 % 0 mm 0 W/m2
03:00 7.8 °C 6.1 °C 1014.8 hPa WSW 8 km/h 8 km/h 89 % 0 mm 0 W/m2
03:05 7.8 °C 6.3 °C 1014.8 hPa WSW 6.4 km/h 19.3 km/h 90 % 0 mm 0 W/m2
03:15 7.7 °C 6.2 °C 1014.8 hPa SW 6.4 km/h 19.3 km/h 90 % 0 mm 0 W/m2
03:20 7.7 °C 6.2 °C 1014.8 hPa SW 3.2 km/h 3.2 km/h 90 % 0 mm 0 W/m2
03:25 7.7 °C 6.1 °C 1014.4 hPa SW 1.6 km/h 19.3 km/h 90 % 0 mm 0 W/m2
03:30 7.6 °C 6.2 °C 1014.4 hPa SW 1.6 km/h 1.6 km/h 91 % 0 mm 0 W/m2
03:35 7.6 °C 6.2 °C 1014.4 hPa Calm   19.3 km/h 91 % 0 mm 0 W/m2
03:45 7.5 °C 6.1 °C 1014.1 hPa Calm   19.3 km/h 91 % 0 mm 0 W/m2
03:50 7.4 °C 6.2 °C 1014.1 hPa SW 1.6 km/h 19.3 km/h 92 % 0 mm 0 W/m2
03:55 7.4 °C 6.2 °C 1014.1 hPa SW 1.6 km/h 19.3 km/h 92 % 0 mm 0 W/m2
04:00 7.4 °C 6.2 °C 1014.1 hPa SSW 1.6 km/h 19.3 km/h 92 % 0 mm 0 W/m2
04:05 7.4 °C 6.2 °C 1014.1 hPa SSW 3.2 km/h 19.3 km/h 92 % 0 mm 0 W/m2
04:10 7.4 °C 6.2 °C 1014.1 hPa SSW 1.6 km/h 1.6 km/h 92 % 0 mm 0 W/m2
04:15 7.3 °C 6.1 °C 1014.1 hPa Calm   19.3 km/h 92 % 0 mm 0 W/m2
04:20 7.3 °C 6.1 °C 1014.1 hPa Calm   19.3 km/h 92 % 0 mm 0 W/m2
04:30 7.3 °C 6.3 °C 1014.1 hPa North 3.2 km/h 19.3 km/h 93 % 0 mm 0 W/m2
04:35 7.1 °C 5.9 °C 1014.4 hPa NNE 9.7 km/h 19.3 km/h 92 % 1.27 mm 0 W/m2
04:40 6.7 °C 5.5 °C 1014.4 hPa NNE 11.3 km/h 19.3 km/h 92 % 3.3 mm 0 W/m2
04:45 6.4 °C 5.2 °C 1014.4 hPa North 12.9 km/h 19.3 km/h 92 % 4.57 mm 0 W/m2
04:50 6.3 °C 5.2 °C 1014.4 hPa North 11.3 km/h 11.3 km/h 93 % 4.57 mm 0 W/m2
04:55 6.2 °C 5.2 °C 1014.4 hPa North 9.7 km/h 17.7 km/h 93 % 2.54 mm 0 W/m2
05:05 6 °C 5.1 °C 1014.4 hPa NNE 9.7 km/h 19.3 km/h 94 % 2.79 mm 0 W/m2
05:10 5.9 °C 5.1 °C 1014.8 hPa NE 9.7 km/h 19.3 km/h 94 % 2.79 mm 0 W/m2
05:15 5.9 °C 5.1 °C 1014.8 hPa NNW 11.3 km/h 19.3 km/h 94 % 2.54 mm 0 W/m2
05:20 5.9 °C 5.2 °C 1014.8 hPa North 9.7 km/h 9.7 km/h 95 % 1.52 mm 0 W/m2
05:25 5.9 °C 5.2 °C 1014.8 hPa North 8 km/h 19.3 km/h 95 % 1.52 mm 0 W/m2
05:30 5.9 °C 5.2 °C 1014.8 hPa North 9.7 km/h 19.3 km/h 95 % 1.27 mm 0 W/m2
05:40 5.8 °C 5.1 °C 1014.8 hPa North 8 km/h 8 km/h 95 % 1.02 mm 0 W/m2
05:45 5.7 °C 5 °C 1015.1 hPa NNW 9.7 km/h 16.1 km/h 95 % 1.02 mm 0 W/m2
05:50 5.7 °C 4.9 °C 1015.1 hPa NNW 11.3 km/h 11.3 km/h 95 % 1.02 mm 0 W/m2
05:55 5.6 °C 4.9 °C 1015.1 hPa NNW 11.3 km/h 19.3 km/h 95 % 1.02 mm 0 W/m2
06:00 5.6 °C 4.8 °C 1015.1 hPa NNW 9.7 km/h 9.7 km/h 95 % 1.02 mm 0 W/m2
06:10 5.5 °C 4.8 °C 1015.1 hPa NNW 9.7 km/h 9.7 km/h 95 % 1.02 mm 0 W/m2
06:20 5.4 °C 4.7 °C 1015.1 hPa North 12.9 km/h 25.7 km/h 95 % 1.02 mm 0 W/m2
06:25 5.4 °C 4.7 °C 1015.5 hPa NNW 14.5 km/h 25.7 km/h 95 % 0 mm 0 W/m2
06:30 5.3 °C 4.6 °C 1015.5 hPa North 12.9 km/h 12.9 km/h 95 % 0 mm 0 W/m2
06:35 5.3 °C 4.6 °C 1015.5 hPa North 11.3 km/h 19.3 km/h 95 % 0 mm 0 W/m2
06:40 5.2 °C 4.3 °C 1015.5 hPa NW 9.7 km/h 9.7 km/h 94 % 0 mm 0 W/m2
06:45 5.1 °C 4.2 °C 1015.5 hPa North 11.3 km/h 11.3 km/h 94 % 0 mm 0 W/m2
06:55 4.9 °C 4 °C 1015.8 hPa NE 12.9 km/h 17.7 km/h 94 % 0 mm 0 W/m2
07:00 4.8 °C 3.9 °C 1015.8 hPa North 11.3 km/h 24.1 km/h 94 % 0 mm 0 W/m2
07:05 4.7 °C 3.8 °C 1015.8 hPa NNW 11.3 km/h 24.1 km/h 94 % 0 mm 0 W/m2
07:10 4.7 °C 3.8 °C 1015.8 hPa NNW 9.7 km/h 19.3 km/h 94 % 0 mm 0 W/m2
07:15 4.7 °C 3.9 °C 1015.8 hPa North 8 km/h 19.3 km/h 95 % 0 mm 0 W/m2
07:20 4.6 °C 3.8 °C 1016.1 hPa North 9.7 km/h 19.3 km/h 95 % 0 mm 0 W/m2
07:30 4.5 °C 3.6 °C 1016.1 hPa North 9.7 km/h 19.3 km/h 94 % 0 mm 0 W/m2
07:35 4.4 °C 3.6 °C 1016.1 hPa NNW 8 km/h 19.3 km/h 94 % 0 mm 0 W/m2
07:40 4.4 °C 3.5 °C 1016.1 hPa North 8 km/h 8 km/h 94 % 0 mm 0 W/m2
07:50 4.4 °C 3.7 °C 1016.5 hPa North 8 km/h 19.3 km/h 95 % 0 mm 0 W/m2
07:55 4.4 °C 3.7 °C 1016.5 hPa North 6.4 km/h 19.3 km/h 95 % 0 mm 0 W/m2
08:00 4.4 °C 3.7 °C 1016.5 hPa NNW 6.4 km/h 19.3 km/h 95 % 0 mm 0 W/m2
08:05 4.3 °C 3.6 °C 1016.5 hPa NNW 8 km/h 19.3 km/h 95 % 0 mm 0 W/m2
08:10 4.3 °C 3.6 °C 1016.5 hPa NNE 9.7 km/h 19.3 km/h 95 % 0 mm 0 W/m2
08:15 4.3 °C 3.6 °C 1016.5 hPa NW 6.4 km/h 19.3 km/h 95 % 0 mm 0 W/m2
08:20 4.3 °C 3.6 °C 1016.5 hPa North 6.4 km/h 19.3 km/h 95 % 0 mm 0 W/m2
08:25 4.3 °C 3.6 °C 1016.5 hPa North 8 km/h 19.3 km/h 95 % 0 mm 0 W/m2
08:35 4.2 °C 3.5 °C 1016.5 hPa NE 6.4 km/h 19.3 km/h 95 % 0 mm 0 W/m2
08:40 4.2 °C 3.5 °C 1016.5 hPa NNW 4.8 km/h 19.3 km/h 95 % 0 mm 0 W/m2
08:45 4.2 °C 3.5 °C 1016.8 hPa NNW 6.4 km/h 19.3 km/h 95 % 0 mm 0 W/m2
08:50 4.2 °C 3.5 °C 1016.8 hPa North 6.4 km/h 6.4 km/h 95 % 0 mm 7 W/m2
08:55 4.2 °C 3.5 °C 1016.8 hPa NNW 6.4 km/h 8 km/h 95 % 0 mm 9 W/m2
09:00 4.2 °C 3.5 °C 1017.2 hPa NNW 4.8 km/h 19.3 km/h 95 % 0 mm 11 W/m2
09:10 4.2 °C 3.4 °C 1017.2 hPa NNW 11.3 km/h 19.3 km/h 95 % 0 mm 14 W/m2
09:15 4.2 °C 3.5 °C 1017.5 hPa NNW 8 km/h 19.3 km/h 95 % 0 mm 14 W/m2
09:20 4.2 °C 3.5 °C 1017.5 hPa NNW 4.8 km/h 19.3 km/h 95 % 0 mm 11 W/m2
09:25 4.2 °C 3.5 °C 1017.5 hPa NNW 4.8 km/h 19.3 km/h 95 % 0 mm 11 W/m2
09:35 4.2 °C 3.4 °C 1017.5 hPa North 8 km/h 19.3 km/h 95 % 0 mm 14 W/m2
09:40 4.1 °C 3.4 °C 1017.8 hPa NNW 9.7 km/h 9.7 km/h 95 % 0 mm 12 W/m2
09:45 4.1 °C 3.2 °C 1017.8 hPa NNE 8 km/h 12.9 km/h 94 % 0 mm 12 W/m2
09:50 4.1 °C 3.2 °C 1017.8 hPa North 8 km/h 19.3 km/h 94 % 0 mm 12 W/m2
09:55 4.1 °C 3.2 °C 1017.8 hPa North 8 km/h 19.3 km/h 94 % 0 mm 12 W/m2
10:00 4 °C 3.1 °C 1018.2 hPa NNE 9.7 km/h 9.7 km/h 94 % 0 mm 16 W/m2
10:05 4 °C 3.1 °C 1018.2 hPa NNE 11.3 km/h 11.3 km/h 94 % 1.02 mm 18 W/m2
10:15 3.9 °C 3 °C 1018.2 hPa NNE 9.7 km/h 19.3 km/h 94 % 1.02 mm 21 W/m2
10:20 3.9 °C 3.1 °C 1018.2 hPa NNW 8 km/h 19.3 km/h 94 % 1.02 mm 18 W/m2
10:25 3.9 °C 3.1 °C 1018.2 hPa NW 6.4 km/h 19.3 km/h 94 % 1.02 mm 19 W/m2
10:30 4 °C 3.1 °C 1018.5 hPa NNW 8 km/h 19.3 km/h 94 % 1.02 mm 16 W/m2
10:35 4 °C 3.1 °C 1018.5 hPa NNE 8 km/h 19.3 km/h 94 % 1.02 mm 16 W/m2
10:40 4.1 °C 3.2 °C 1018.5 hPa NNE 4.8 km/h 4.8 km/h 94 % 1.02 mm 18 W/m2
10:45 4.1 °C 3.2 °C 1018.5 hPa NNW 4.8 km/h 8 km/h 94 % 1.02 mm 18 W/m2
10:50 4.1 °C 3.2 °C 1018.5 hPa North 6.4 km/h 19.3 km/h 94 % 1.02 mm 26 W/m2
11:00 4.1 °C 3.4 °C 1018.5 hPa North 8 km/h 8 km/h 95 % 0 mm 19 W/m2
11:05 4.2 °C 3.4 °C 1018.5 hPa NNW 6.4 km/h 19.3 km/h 95 % 0 mm 18 W/m2
11:10 4.2 °C 3.4 °C 1018.5 hPa NNE 8 km/h 19.3 km/h 95 % 0 mm 23 W/m2
11:15 4.2 °C 3.4 °C 1018.5 hPa NNW 9.7 km/h 19.3 km/h 95 % 0 mm 28 W/m2
11:25 4.1 °C 3.2 °C 1018.5 hPa NNE 12.9 km/h 19.3 km/h 94 % 0 mm 37 W/m2
11:35 4.1 °C 3.2 °C 1018.5 hPa NNW 9.7 km/h 19.3 km/h 94 % 0 mm 30 W/m2
11:40 4 °C 3.1 °C 1018.5 hPa NE 11.3 km/h 19.3 km/h 94 % 0 mm 23 W/m2
11:45 4 °C 3.1 °C 1018.5 hPa North 11.3 km/h 19.3 km/h 94 % 0 mm 25 W/m2
11:50 4 °C 3.1 °C 1018.8 hPa NNW 9.7 km/h 9.7 km/h 94 % 0 mm 26 W/m2
11:55 4 °C 3.1 °C 1018.8 hPa NNE 6.4 km/h 17.7 km/h 94 % 0 mm 32 W/m2
12:00 4 °C 3.1 °C 1018.8 hPa NNW 9.7 km/h 19.3 km/h 94 % 0 mm 37 W/m2
12:10 4 °C 3.1 °C 1018.8 hPa North 9.7 km/h 19.3 km/h 94 % 0 mm 44 W/m2
12:15 4 °C 3.1 °C 1018.8 hPa NNE 11.3 km/h 19.3 km/h 94 % 0 mm 47 W/m2
12:20 4 °C 3.1 °C 1018.8 hPa NNE 9.7 km/h 19.3 km/h 94 % 0 mm 32 W/m2
12:30 4 °C 3.1 °C 1018.8 hPa NE 9.7 km/h 9.7 km/h 94 % 0 mm 37 W/m2
12:35 4 °C 3.1 °C 1018.8 hPa North 9.7 km/h 19.3 km/h 94 % 0 mm 51 W/m2
12:40 4 °C 3.1 °C 1018.8 hPa North 9.7 km/h 19.3 km/h 94 % 0 mm 53 W/m2
12:45 4 °C 3.1 °C 1018.8 hPa NNE 11.3 km/h 19.3 km/h 94 % 0 mm 58 W/m2
12:50 4 °C 2.9 °C 1018.8 hPa North 11.3 km/h 19.3 km/h 93 % 0 mm 37 W/m2
12:55 4 °C 2.9 °C 1018.8 hPa North 11.3 km/h 19.3 km/h 93 % 0 mm 56 W/m2
13:00 3.9 °C 2.9 °C 1019.2 hPa North 12.9 km/h 12.9 km/h 93 % 0 mm 60 W/m2
13:05 3.9 °C 2.9 °C 1018.8 hPa NNW 12.9 km/h 22.5 km/h 93 % 0 mm 65 W/m2
13:15 4 °C 2.9 °C 1019.2 hPa NNW 11.3 km/h 19.3 km/h 93 % 0 mm 81 W/m2
13:20 4.1 °C 3 °C 1019.2 hPa NNE 12.9 km/h 19.3 km/h 93 % 0 mm 81 W/m2
13:25 4.1 °C 3 °C 1019.2 hPa NNW 11.3 km/h 19.3 km/h 93 % 0 mm 77 W/m2
13:30 4.1 °C 2.9 °C 1019.2 hPa NNW 11.3 km/h 11.3 km/h 92 % 0 mm 84 W/m2
13:35 4.1 °C 2.9 °C 1019.2 hPa NNW 11.3 km/h 19.3 km/h 92 % 0 mm 62 W/m2
13:40 4.1 °C 2.9 °C 1019.2 hPa NNE 12.9 km/h 12.9 km/h 92 % 0 mm 62 W/m2
13:50 4 °C 2.7 °C 1019.5 hPa North 12.9 km/h 19.3 km/h 91 % 0 mm 44 W/m2
13:55 4 °C 2.7 °C 1019.5 hPa NW 11.3 km/h 19.3 km/h 91 % 0 mm 49 W/m2
14:00 4 °C 2.7 °C 1019.5 hPa NNE 11.3 km/h 11.3 km/h 91 % 0 mm 40 W/m2
14:05 3.9 °C 2.6 °C 1019.5 hPa North 11.3 km/h 19.3 km/h 91 % 0 mm 33 W/m2
14:10 4 °C 2.7 °C 1019.5 hPa NE 11.3 km/h 19.3 km/h 91 % 0 mm 44 W/m2
14:15 3.9 °C 2.6 °C 1019.5 hPa NNW 12.9 km/h 19.3 km/h 91 % 0 mm 42 W/m2
14:25 3.9 °C 2.6 °C 1019.5 hPa NW 8 km/h 19.3 km/h 91 % 0 mm 46 W/m2
14:30 3.8 °C 2.3 °C 1019.9 hPa North 11.3 km/h 22.5 km/h 90 % 0 mm 46 W/m2
14:35 3.8 °C 2.3 °C 1019.9 hPa NNW 14.5 km/h 22.5 km/h 90 % 0 mm 49 W/m2
14:40 3.8 °C 2.2 °C 1019.9 hPa NNW 14.5 km/h 19.3 km/h 89 % 0 mm 60 W/m2
14:45 3.8 °C 2.2 °C 1019.9 hPa North 11.3 km/h 19.3 km/h 89 % 0 mm 40 W/m2
14:50 3.8 °C 2.2 °C 1019.9 hPa North 12.9 km/h 19.3 km/h 89 % 0 mm 46 W/m2
15:00 3.8 °C 2 °C 1020.2 hPa NNW 11.3 km/h 19.3 km/h 88 % 0 mm 39 W/m2
15:05 3.8 °C 2 °C 1020.2 hPa NNW 11.3 km/h 19.3 km/h 88 % 0 mm 30 W/m2
15:10 3.8 °C 2 °C 1020.2 hPa NNW 9.7 km/h 9.7 km/h 88 % 0 mm 23 W/m2
15:15 3.8 °C 2 °C 1020.2 hPa NW 9.7 km/h 11.3 km/h 88 % 0 mm 23 W/m2
15:20 3.7 °C 1.9 °C 1020.2 hPa North 8 km/h 19.3 km/h 88 % 0 mm 21 W/m2
15:25 3.7 °C 1.9 °C 1020.2 hPa NNW 6.4 km/h 19.3 km/h 88 % 0 mm 26 W/m2
15:30 3.7 °C 1.9 °C 1020.2 hPa North 8 km/h 8 km/h 88 % 0 mm 16 W/m2
15:40 3.6 °C 1.8 °C 1020.5 hPa NW 9.7 km/h 9.7 km/h 88 % 0 mm 12 W/m2
15:45 3.6 °C 1.8 °C 1020.5 hPa NW 8 km/h 19.3 km/h 88 % 0 mm 11 W/m2
15:50 3.4 °C 1.7 °C 1020.5 hPa NNW 6.4 km/h 19.3 km/h 88 % 0 mm 9 W/m2
15:55 3.4 °C 1.6 °C 1020.5 hPa NNW 8 km/h 19.3 km/h 88 % 0 mm 5 W/m2
16:00 3.3 °C 1.6 °C 1020.9 hPa NNW 9.7 km/h 9.7 km/h 88 % 0 mm 5 W/m2
16:10 3.2 °C 1.3 °C 1020.9 hPa NNW 6.4 km/h 19.3 km/h 87 % 0 mm 0 W/m2
16:15 3.2 °C 1.4 °C 1020.9 hPa NNW 6.4 km/h 19.3 km/h 88 % 0 mm 0 W/m2
16:20 3.1 °C 1.3 °C 1020.9 hPa NW 4.8 km/h 4.8 km/h 88 % 0 mm 0 W/m2
16:25 2.9 °C 1.2 °C 1020.9 hPa NNW 3.2 km/h 19.3 km/h 88 % 0 mm 0 W/m2
16:35 2.8 °C 1.2 °C 1021.2 hPa NNW 4.8 km/h 8 km/h 89 % 0 mm 0 W/m2
16:40 2.8 °C 1.2 °C 1021.2 hPa WNW 3.2 km/h 19.3 km/h 89 % 0 mm 0 W/m2
16:45 2.8 °C 1.2 °C 1021.6 hPa NW 4.8 km/h 19.3 km/h 89 % 0 mm 0 W/m2
16:50 2.8 °C 1.2 °C 1021.6 hPa NW 4.8 km/h 4.8 km/h 89 % 0 mm 0 W/m2
16:55 2.8 °C 1.2 °C 1021.6 hPa NW 4.8 km/h 19.3 km/h 89 % 0 mm 0 W/m2
17:00 2.7 °C 1.1 °C 1021.6 hPa NW 3.2 km/h 19.3 km/h 89 % 0 mm 0 W/m2
17:05 2.6 °C 1 °C 1021.6 hPa NW 3.2 km/h 19.3 km/h 89 % 0 mm 0 W/m2
17:10 2.5 °C 0.9 °C 1021.6 hPa NNW 3.2 km/h 19.3 km/h 89 % 0 mm 0 W/m2
17:20 2.4 °C 0.8 °C 1021.9 hPa NNW 4.8 km/h 4.8 km/h 89 % 0 mm 0 W/m2
17:25 2.3 °C 0.7 °C 1021.9 hPa NW 4.8 km/h 19.3 km/h 89 % 0 mm 0 W/m2
17:30 2.3 °C 0.7 °C 1021.9 hPa NW 3.2 km/h 19.3 km/h 89 % 0 mm 0 W/m2
17:35 2.2 °C 0.6 °C 1021.9 hPa NW 4.8 km/h 19.3 km/h 89 % 0 mm 0 W/m2
17:45 2.2 °C 0.7 °C 1022.2 hPa NW 6.4 km/h 19.3 km/h 90 % 0 mm 0 W/m2
17:55 2.1 °C 0.4 °C 1022.2 hPa NNW 6.4 km/h 19.3 km/h 89 % 0 mm 0 W/m2
18:00 2.1 °C 0.6 °C 1022.6 hPa NNW 8 km/h 19.3 km/h 90 % 0 mm 0 W/m2
18:05 2.1 °C 0.7 °C 1022.6 hPa NNW 8 km/h 19.3 km/h 90 % 0 mm 0 W/m2
18:10 2.2 °C 0.8 °C 1022.6 hPa NNW 6.4 km/h 6.4 km/h 90 % 0 mm 0 W/m2
18:20 2.6 °C 1.1 °C 1022.9 hPa NNW 9.7 km/h 19.3 km/h 90 % 0 mm 0 W/m2
18:30 2.8 °C 1.2 °C 1022.9 hPa NNW 9.7 km/h 19.3 km/h 89 % 0 mm 0 W/m2
18:35 2.8 °C 1.2 °C 1022.9 hPa NNW 8 km/h 19.3 km/h 89 % 0 mm 0 W/m2
18:40 2.9 °C 1.3 °C 1022.9 hPa NNW 6.4 km/h 19.3 km/h 89 % 0 mm 0 W/m2
18:45 3 °C 1.5 °C 1022.9 hPa North 9.7 km/h 19.3 km/h 90 % 0 mm 0 W/m2
18:50 3.1 °C 1.6 °C 1023.2 hPa NNW 11.3 km/h 11.3 km/h 90 % 0 mm 0 W/m2
18:55 3.1 °C 1.6 °C 1023.2 hPa NW 11.3 km/h 14.5 km/h 90 % 0 mm 0 W/m2
19:05 2.9 °C 1.4 °C 1023.2 hPa NNW 11.3 km/h 19.3 km/h 90 % 0 mm 0 W/m2
19:10 2.9 °C 1.4 °C 1023.6 hPa NW 9.7 km/h 19.3 km/h 90 % 0 mm 0 W/m2
19:15 2.8 °C 1.3 °C 1023.6 hPa NNW 9.7 km/h 19.3 km/h 90 % 0 mm 0 W/m2
19:20 2.7 °C 1.4 °C 1023.6 hPa NNW 8 km/h 8 km/h 91 % 0 mm 0 W/m2
19:25 2.7 °C 1.3 °C 1023.6 hPa NNW 6.4 km/h 19.3 km/h 91 % 0 mm 0 W/m2
19:30 2.6 °C 1.2 °C 1023.6 hPa NNW 6.4 km/h 19.3 km/h 91 % 0 mm 0 W/m2
19:40 2.5 °C 1.2 °C 1023.6 hPa NW 8 km/h 19.3 km/h 91 % 0 mm 0 W/m2
19:45 2.5 °C 1.2 °C 1023.9 hPa North 8 km/h 19.3 km/h 91 % 0 mm 0 W/m2
19:50 2.4 °C 1.1 °C 1023.9 hPa NNW 4.8 km/h 4.8 km/h 91 % 0 mm 0 W/m2
19:55 2.3 °C 1.2 °C 1023.9 hPa NNW 4.8 km/h 8 km/h 92 % 0 mm 0 W/m2
20:00 2.3 °C 1.1 °C 1023.9 hPa NW 8 km/h 8 km/h 92 % 0 mm 0 W/m2
20:05 2.2 °C 1.1 °C 1023.9 hPa NNW 6.4 km/h 19.3 km/h 92 % 0 mm 0 W/m2
20:15 2.2 °C 1 °C 1024.3 hPa NW 6.4 km/h 19.3 km/h 92 % 0 mm 0 W/m2
20:20 2.2 °C 1.2 °C 1024.3 hPa NNW 6.4 km/h 19.3 km/h 93 % 0 mm 0 W/m2
20:25 2.3 °C 1.3 °C 1024.3 hPa NNW 8 km/h 19.3 km/h 93 % 0 mm 0 W/m2
20:30 2.3 °C 1.1 °C 1024.3 hPa NNW 9.7 km/h 9.7 km/h 92 % 0 mm 0 W/m2
20:40 2.2 °C 1.1 °C 1024.3 hPa NNW 6.4 km/h 19.3 km/h 92 % 0 mm 0 W/m2
20:45 2.2 °C 1.1 °C 1024.3 hPa NNW 8 km/h 19.3 km/h 92 % 0 mm 0 W/m2
20:50 2.2 °C 1 °C 1024.6 hPa NNW 6.4 km/h 19.3 km/h 92 % 0 mm 0 W/m2
20:55 2.1 °C 0.9 °C 1024.6 hPa NNW 6.4 km/h 19.3 km/h 92 % 0 mm 0 W/m2
21:00 2.1 °C 0.9 °C 1024.9 hPa NW 8 km/h 19.3 km/h 92 % 0 mm 0 W/m2
21:05 2.1 °C 0.9 °C 1024.9 hPa NNW 8 km/h 19.3 km/h 92 % 0 mm 0 W/m2
21:15 2 °C 0.8 °C 1024.9 hPa NW 8 km/h 19.3 km/h 92 % 0 mm 0 W/m2
21:20 1.9 °C 0.8 °C 1024.9 hPa WNW 8 km/h 8 km/h 92 % 0 mm 0 W/m2
21:25 1.9 °C 0.7 °C 1024.9 hPa NW 6.4 km/h 19.3 km/h 92 % 0 mm 0 W/m2
21:30 1.8 °C 0.6 °C 1025.3 hPa NW 6.4 km/h 19.3 km/h 92 % 0 mm 0 W/m2
21:35 1.7 °C 0.6 °C 1025.3 hPa NNW 6.4 km/h 19.3 km/h 92 % 0 mm 0 W/m2
21:40 1.7 °C 0.7 °C 1025.6 hPa NW 6.4 km/h 19.3 km/h 93 % 0 mm 0 W/m2
21:50 1.9 °C 0.9 °C 1025.6 hPa NNW 8 km/h 8 km/h 93 % 0 mm 0 W/m2
21:55 1.9 °C 0.9 °C 1025.6 hPa NW 6.4 km/h 19.3 km/h 93 % 0 mm 0 W/m2
22:00 1.9 °C 0.9 °C 1025.6 hPa NW 4.8 km/h 19.3 km/h 93 % 0 mm 0 W/m2
22:05 1.9 °C 0.9 °C 1026 hPa NW 6.4 km/h 19.3 km/h 93 % 0 mm 0 W/m2
22:10 1.9 °C 0.9 °C 1026 hPa NW 8 km/h 8 km/h 93 % 0 mm 0 W/m2
22:20 2.2 °C 1.3 °C 1026 hPa NNW 9.7 km/h 9.7 km/h 94 % 0 mm 0 W/m2
22:25 2.3 °C 1.4 °C 1026 hPa North 8 km/h 11.3 km/h 94 % 0 mm 0 W/m2
22:30 2.3 °C 1.3 °C 1026 hPa NNW 8 km/h 19.3 km/h 93 % 0 mm 0 W/m2
22:35 2.4 °C 1.4 °C 1026 hPa NNW 8 km/h 19.3 km/h 93 % 0 mm 0 W/m2
22:40 2.4 °C 1.4 °C 1026 hPa North 8 km/h 8 km/h 93 % 0 mm 0 W/m2
22:50 2.4 °C 1.4 °C 1026.3 hPa NW 11.3 km/h 11.3 km/h 93 % 0 mm 0 W/m2
22:55 2.4 °C 1.4 °C 1026.3 hPa NNW 11.3 km/h 19.3 km/h 93 % 0 mm 0 W/m2
23:00 2.4 °C 1.4 °C 1026.3 hPa NW 9.7 km/h 9.7 km/h 93 % 0 mm 0 W/m2
23:05 2.4 °C 1.4 °C 1026.3 hPa North 8 km/h 12.9 km/h 93 % 0 mm 0 W/m2
23:10 2.5 °C 1.5 °C 1026.6 hPa NNW 9.7 km/h 19.3 km/h 93 % 0 mm 0 W/m2
23:15 2.6 °C 1.6 °C 1026.6 hPa NNW 11.3 km/h 19.3 km/h 93 % 0 mm 0 W/m2
23:25 2.6 °C 1.6 °C 1026.6 hPa NNW 8 km/h 19.3 km/h 93 % 0 mm 0 W/m2
23:30 2.6 °C 1.6 °C 1026.6 hPa NNW 9.7 km/h 19.3 km/h 93 % 0 mm 0 W/m2
23:35 2.6 °C 1.6 °C 1026.6 hPa NW 9.7 km/h 19.3 km/h 93 % 0 mm 0 W/m2
23:40 2.7 °C 1.7 °C 1026.6 hPa NNW 9.7 km/h 19.3 km/h 93 % 0 mm 0 W/m2
23:45 2.7 °C 1.7 °C 1027 hPa NW 9.7 km/h 19.3 km/h 93 % 0 mm 0 W/m2
23:55 2.8 °C 1.8 °C 1027 hPa NNW 8 km/h 19.3 km/h 93 % 0 mm 0 W/m2
Delerius-Weather
Compliments of Weather Underground - 2 mb

Data updates at regular intervals.